createdAt,value
2023-03-19T00:01:04.512Z,6.78
2023-03-19T00:03:33.513Z,8.32
2023-03-19T00:06:01.225Z,7.67
2023-03-19T00:08:28.903Z,9.30
2023-03-19T00:10:56.079Z,9.07
2023-03-19T00:13:23.066Z,9.00
2023-03-19T00:15:50.477Z,7.32
2023-03-19T00:18:17.426Z,8.57
2023-03-19T00:20:46.317Z,7.93
2023-03-19T00:23:14.240Z,8.15
2023-03-19T00:25:41.482Z,7.55
2023-03-19T00:28:09.349Z,8.07
2023-03-19T00:30:36.574Z,7.50
2023-03-19T00:33:03.858Z,8.00
2023-03-19T00:35:30.984Z,7.70
2023-03-19T00:37:59.817Z,7.78
2023-03-19T00:40:27.455Z,7.18
2023-03-19T00:42:54.692Z,7.67
2023-03-19T00:45:21.905Z,7.95
2023-03-19T00:47:49.021Z,7.72
2023-03-19T00:50:16.061Z,10.90
2023-03-19T00:52:43.921Z,10.32
2023-03-19T00:55:12.700Z,10.20
2023-03-19T00:57:39.602Z,8.55
2023-03-19T01:00:08.828Z,10.82
2023-03-19T01:02:36.219Z,11.07
2023-03-19T01:05:03.492Z,9.20
2023-03-19T01:07:30.669Z,8.60
2023-03-19T01:09:57.636Z,7.47
2023-03-19T01:12:26.386Z,7.88
2023-03-19T01:14:53.372Z,8.10
2023-03-19T01:17:20.481Z,7.57
2023-03-19T01:19:48.803Z,7.80
2023-03-19T01:22:16.902Z,7.95
2023-03-19T01:24:44.149Z,7.18
2023-03-19T01:27:11.442Z,7.57
2023-03-19T01:29:40.183Z,7.32
2023-03-19T01:32:07.633Z,7.07
2023-03-19T01:34:34.518Z,6.75
2023-03-19T01:37:01.481Z,6.53
2023-03-19T01:39:29.642Z,7.13
2023-03-19T01:42:00.743Z,7.88
2023-03-19T01:44:28.796Z,7.60
2023-03-19T01:46:57.753Z,7.80
2023-03-19T01:49:26.207Z,7.22
2023-03-19T01:51:53.652Z,7.20
2023-03-19T01:54:22.550Z,6.50
2023-03-19T01:56:51.662Z,6.67
2023-03-19T01:59:22.243Z,6.75
2023-03-19T02:01:51.324Z,7.07
2023-03-19T02:04:19.796Z,7.43
2023-03-19T02:06:47.171Z,7.43
2023-03-19T02:09:14.996Z,7.77
2023-03-19T02:11:42.336Z,7.47
2023-03-19T02:14:09.937Z,7.45
2023-03-19T02:16:36.940Z,7.95
2023-03-19T02:19:04.443Z,7.35
2023-03-19T02:21:33.064Z,7.47
2023-03-19T02:24:02.223Z,7.32
2023-03-19T02:26:31.117Z,7.18
2023-03-19T02:28:58.233Z,6.50
2023-03-19T02:31:25.316Z,7.07
2023-03-19T02:33:59.581Z,7.07
2023-03-19T02:36:29.699Z,6.47
2023-03-19T02:38:58.132Z,6.28
2023-03-19T02:41:25.299Z,6.43
2023-03-19T02:43:54.062Z,6.55
2023-03-19T02:46:21.328Z,6.80
2023-03-19T02:48:49.343Z,6.35
2023-03-19T02:51:16.733Z,6.43
2023-03-19T02:53:43.678Z,6.45
2023-03-19T02:56:10.709Z,6.45
2023-03-19T02:58:38.214Z,5.87
2023-03-19T03:01:07.687Z,6.05
2023-03-19T03:03:34.926Z,6.57
2023-03-19T03:06:01.907Z,6.43
2023-03-19T03:08:29.440Z,6.63
2023-03-19T03:10:56.689Z,6.63
2023-03-19T03:13:23.806Z,7.20
2023-03-19T03:15:51.731Z,9.80
2023-03-19T03:18:20.254Z,7.20
2023-03-19T03:20:47.548Z,7.28
2023-03-19T03:23:14.697Z,6.40
2023-03-19T03:25:41.776Z,6.10
2023-03-19T03:28:09.100Z,6.30
2023-03-19T03:30:36.406Z,6.25
2023-03-19T03:33:04.047Z,5.95
2023-03-19T03:35:32.623Z,6.40
2023-03-19T03:37:59.797Z,5.97
2023-03-19T03:40:27.582Z,6.60
2023-03-19T03:42:54.554Z,6.75
2023-03-19T03:45:21.519Z,6.53
2023-03-19T03:47:48.795Z,7.00
2023-03-19T03:50:17.138Z,6.85
2023-03-19T03:52:45.970Z,6.47
2023-03-19T03:55:12.890Z,6.53
2023-03-19T03:57:39.843Z,6.32
2023-03-19T04:00:07.527Z,6.77
2023-03-19T04:02:35.112Z,6.70
2023-03-19T04:05:02.059Z,7.50
2023-03-19T04:07:29.067Z,5.93
2023-03-19T04:09:59.388Z,7.00
2023-03-19T04:12:26.437Z,6.00
2023-03-19T04:14:53.695Z,7.03
2023-03-19T04:17:20.836Z,7.28
2023-03-19T04:19:47.865Z,6.30
2023-03-19T04:22:14.866Z,7.10
2023-03-19T04:24:42.042Z,6.97
2023-03-19T04:27:10.613Z,7.30
2023-03-19T04:29:37.536Z,7.78
2023-03-19T04:32:04.820Z,7.57
2023-03-19T04:34:31.990Z,7.45
2023-03-19T04:36:58.965Z,7.33
2023-03-19T04:39:26.149Z,7.15
2023-03-19T04:41:53.250Z,6.80
2023-03-19T04:44:22.130Z,7.53
2023-03-19T04:46:49.154Z,8.10
2023-03-19T04:49:16.545Z,6.87
2023-03-19T04:51:44.131Z,6.22
2023-03-19T04:54:11.168Z,7.60
2023-03-19T04:56:38.109Z,6.45
2023-03-19T04:59:05.007Z,7.30
2023-03-19T05:01:33.746Z,6.70
2023-03-19T05:04:00.713Z,7.63
2023-03-19T05:06:36.461Z,7.10
2023-03-19T05:09:03.794Z,7.95
2023-03-19T05:11:31.198Z,7.72
2023-03-19T05:13:58.202Z,7.40
2023-03-19T05:16:25.126Z,7.07
2023-03-19T05:18:53.558Z,7.57
2023-03-19T05:21:20.571Z,6.97
2023-03-19T05:23:52.403Z,6.47
2023-03-19T05:26:19.471Z,7.60
2023-03-19T05:28:46.843Z,6.57
2023-03-19T05:31:13.851Z,7.13
2023-03-19T05:33:41.899Z,6.63
2023-03-19T05:36:12.536Z,6.70
2023-03-19T05:38:39.597Z,7.67
2023-03-19T05:41:07.302Z,6.78
2023-03-19T05:43:34.484Z,7.20
2023-03-19T05:46:02.457Z,7.50
2023-03-19T05:48:29.804Z,6.72
2023-03-19T05:50:57.665Z,7.80
2023-03-19T05:53:26.368Z,7.35
2023-03-19T05:55:53.292Z,7.47
2023-03-19T05:58:20.273Z,7.22
2023-03-19T06:00:48.737Z,6.80
2023-03-19T06:03:15.819Z,6.77
2023-03-19T06:05:42.800Z,6.90
2023-03-19T06:08:09.949Z,7.57
2023-03-19T06:10:38.361Z,6.78
2023-03-19T06:13:05.713Z,7.10
2023-03-19T06:15:33.602Z,7.63
2023-03-19T06:18:01.013Z,7.25
2023-03-19T06:20:28.039Z,8.07
2023-03-19T06:22:55.162Z,8.88
2023-03-19T06:25:22.231Z,8.65
2023-03-19T06:27:50.805Z,8.30
2023-03-19T06:30:17.788Z,8.38
2023-03-19T06:32:44.733Z,8.02
2023-03-19T06:35:12.246Z,8.23
2023-03-19T06:37:39.290Z,8.07
2023-03-19T06:40:06.697Z,8.17
2023-03-19T06:42:33.834Z,7.32
2023-03-19T06:45:02.722Z,6.40
2023-03-19T06:47:31.151Z,7.10
2023-03-19T06:49:58.074Z,7.05
2023-03-19T06:52:25.113Z,6.40
2023-03-19T06:54:52.125Z,7.03
2023-03-19T06:57:19.097Z,6.90
2023-03-19T06:59:46.502Z,6.88
2023-03-19T07:02:15.472Z,6.68
2023-03-19T07:04:42.519Z,7.17
2023-03-19T07:07:09.535Z,6.80
2023-03-19T07:09:36.634Z,6.63
2023-03-19T07:12:04.194Z,7.28
2023-03-19T07:14:31.208Z,6.82
2023-03-19T07:16:58.222Z,6.70
2023-03-19T07:19:26.607Z,6.97
2023-03-19T07:21:53.652Z,6.60
2023-03-19T07:24:21.410Z,6.70
2023-03-19T07:26:48.363Z,7.53
2023-03-19T07:29:15.775Z,6.90
2023-03-19T07:31:43.021Z,7.63
2023-03-19T07:34:10.183Z,6.90
2023-03-19T07:36:38.986Z,7.30
2023-03-19T07:39:06.007Z,7.45
2023-03-19T07:41:33.699Z,7.17
2023-03-19T07:44:00.988Z,6.82
2023-03-19T07:46:28.934Z,6.20
2023-03-19T07:48:56.220Z,7.45
2023-03-19T07:51:23.160Z,6.63
2023-03-19T07:53:51.994Z,6.33
2023-03-19T07:56:19.261Z,6.80
2023-03-19T07:58:46.845Z,7.55
2023-03-19T08:01:13.843Z,7.03
2023-03-19T08:03:41.068Z,7.57
2023-03-19T08:06:08.116Z,8.20
2023-03-19T08:08:35.150Z,8.18
2023-03-19T08:11:03.914Z,7.18
2023-03-19T08:13:31.756Z,6.53
2023-03-19T08:15:58.665Z,6.38
2023-03-19T08:18:26.050Z,5.90
2023-03-19T08:20:53.106Z,6.82
2023-03-19T08:23:20.980Z,6.43
2023-03-19T08:25:48.736Z,5.90
2023-03-19T08:28:17.275Z,6.80
2023-03-19T08:30:44.316Z,6.60
2023-03-19T08:33:11.720Z,5.95
2023-03-19T08:35:38.830Z,7.43
2023-03-19T08:38:06.010Z,6.38
2023-03-19T08:40:33.741Z,6.75
2023-03-19T08:43:01.449Z,6.03
2023-03-19T08:45:29.821Z,5.78
2023-03-19T08:47:58.220Z,6.55
2023-03-19T08:50:25.657Z,6.40
2023-03-19T08:52:52.843Z,6.88
2023-03-19T08:55:20.136Z,5.77
2023-03-19T08:57:47.263Z,6.78
2023-03-19T09:00:15.139Z,5.95
2023-03-19T09:02:44.269Z,6.03
2023-03-19T09:05:11.893Z,6.22
2023-03-19T09:07:38.812Z,5.90
2023-03-19T09:10:06.389Z,6.43
2023-03-19T09:12:33.545Z,6.20
2023-03-19T09:15:00.601Z,6.40
2023-03-19T09:17:27.763Z,6.07
2023-03-19T09:19:56.262Z,6.30
2023-03-19T09:22:23.212Z,6.20
2023-03-19T09:24:50.396Z,6.30
2023-03-19T09:27:17.350Z,6.53
2023-03-19T09:29:44.371Z,6.25
2023-03-19T09:32:11.417Z,6.50
2023-03-19T09:34:38.946Z,5.97
2023-03-19T09:37:07.503Z,6.30
2023-03-19T09:39:35.114Z,5.95
2023-03-19T09:42:10.696Z,6.28
2023-03-19T09:44:39.697Z,6.50
2023-03-19T09:47:19.740Z,6.50
2023-03-19T09:49:50.444Z,6.38
2023-03-19T09:52:25.221Z,6.65
2023-03-19T09:54:53.327Z,6.80
2023-03-19T09:57:20.487Z,6.57
2023-03-19T09:59:48.364Z,7.30
2023-03-19T10:02:28.775Z,6.90
2023-03-19T10:05:01.290Z,6.93
2023-03-19T10:07:39.401Z,6.90
2023-03-19T10:10:23.214Z,7.23
2023-03-19T10:12:56.289Z,7.15
2023-03-19T10:15:26.298Z,7.18
2023-03-19T10:17:56.537Z,6.82
2023-03-19T10:20:29.663Z,7.10
2023-03-19T10:23:00.764Z,6.90
2023-03-19T10:25:29.661Z,7.82
2023-03-19T10:27:58.452Z,6.85
2023-03-19T10:30:25.569Z,7.03
2023-03-19T10:32:54.612Z,6.68
2023-03-19T10:35:23.527Z,7.23
2023-03-19T10:37:51.126Z,7.15
2023-03-19T10:40:22.647Z,6.82
2023-03-19T10:42:58.149Z,7.22
2023-03-19T10:45:28.141Z,7.35
2023-03-19T10:47:56.643Z,7.30
2023-03-19T10:50:28.339Z,7.20
2023-03-19T10:53:02.536Z,7.93
2023-03-19T10:55:31.573Z,7.00
2023-03-19T10:58:03.367Z,6.30
2023-03-19T11:00:33.555Z,7.73
2023-03-19T11:03:04.794Z,7.28
2023-03-19T11:05:34.078Z,6.75
2023-03-19T11:08:02.149Z,6.80
2023-03-19T11:10:30.741Z,7.50
2023-03-19T11:13:01.139Z,7.13
2023-03-19T11:15:29.716Z,8.02
2023-03-19T11:17:57.809Z,7.45
2023-03-19T11:20:30.758Z,8.07
2023-03-19T11:23:02.780Z,8.35
2023-03-19T11:25:31.541Z,7.77
2023-03-19T11:28:04.268Z,7.63
2023-03-19T11:30:36.922Z,7.35
2023-03-19T11:33:18.728Z,7.38
2023-03-19T11:35:51.675Z,6.60
2023-03-19T11:38:21.571Z,7.40
2023-03-19T11:40:51.453Z,7.38
2023-03-19T11:43:39.557Z,7.20
2023-03-19T11:46:10.376Z,6.97
2023-03-19T11:48:43.099Z,6.82
2023-03-19T11:51:15.060Z,7.60
2023-03-19T11:53:49.968Z,7.40
2023-03-19T11:56:20.879Z,7.40
2023-03-19T11:58:58.685Z,7.93
2023-03-19T12:01:34.816Z,7.82
2023-03-19T12:04:08.809Z,7.67
2023-03-19T12:06:39.341Z,6.88
2023-03-19T12:09:12.598Z,8.02
2023-03-19T12:11:44.260Z,7.28
2023-03-19T12:14:17.927Z,7.40
2023-03-19T12:16:52.219Z,7.40
2023-03-19T12:19:27.223Z,7.20
2023-03-19T12:21:59.640Z,6.93
2023-03-19T12:24:31.877Z,7.57
2023-03-19T12:27:02.741Z,6.40
2023-03-19T12:29:38.324Z,6.93
2023-03-19T12:32:13.974Z,7.30
2023-03-19T12:34:44.432Z,6.68
2023-03-19T12:37:14.967Z,6.20
2023-03-19T12:39:45.797Z,6.28
2023-03-19T12:42:15.660Z,6.50
2023-03-19T12:44:46.661Z,7.03
2023-03-19T12:47:14.966Z,6.15
2023-03-19T12:49:45.746Z,5.70
2023-03-19T12:52:17.991Z,5.45
2023-03-19T12:54:47.378Z,5.80
2023-03-19T12:57:17.764Z,6.15
2023-03-19T12:59:48.738Z,6.07
2023-03-19T13:02:18.576Z,5.72
2023-03-19T13:04:49.917Z,6.20
2023-03-19T13:07:20.741Z,6.67
2023-03-19T13:09:50.848Z,6.03
2023-03-19T13:12:21.120Z,5.88
2023-03-19T13:14:52.900Z,5.50
2023-03-19T13:17:23.627Z,5.85
2023-03-19T13:19:54.556Z,5.87
2023-03-19T13:22:22.660Z,5.80
2023-03-19T13:24:52.212Z,5.35
2023-03-19T13:27:21.524Z,5.25
2023-03-19T13:30:09.640Z,5.55
2023-03-19T13:32:41.167Z,5.47
2023-03-19T13:35:23.273Z,5.78
2023-03-19T13:37:54.817Z,5.57
2023-03-19T13:40:42.632Z,5.57
2023-03-19T13:43:28.370Z,6.10
2023-03-19T13:46:04.124Z,5.67
2023-03-19T13:48:49.762Z,5.07
2023-03-19T13:51:28.099Z,5.13
2023-03-19T13:53:55.920Z,5.15
2023-03-19T13:56:30.080Z,5.80
2023-03-19T13:59:16.183Z,5.83
2023-03-19T14:01:44.926Z,6.50
2023-03-19T14:04:19.033Z,5.75
2023-03-19T14:06:47.482Z,5.90
2023-03-19T14:09:35.094Z,5.90
2023-03-19T14:12:22.008Z,7.70
2023-03-19T14:14:50.674Z,6.15
2023-03-19T14:17:20.694Z,4.90
2023-03-19T14:19:50.155Z,5.28
2023-03-19T14:22:21.800Z,5.00
2023-03-19T14:24:57.903Z,5.00
2023-03-19T14:27:29.607Z,5.55
2023-03-19T14:30:00.157Z,5.20
2023-03-19T14:32:32.254Z,4.80
2023-03-19T14:35:03.762Z,5.20
2023-03-19T14:37:36.392Z,5.60
2023-03-19T14:40:09.861Z,5.90
2023-03-19T14:42:39.727Z,5.43
2023-03-19T14:45:21.648Z,5.60
2023-03-19T14:48:00.590Z,5.80
2023-03-19T14:50:34.079Z,5.40
2023-03-19T14:53:03.403Z,5.32
2023-03-19T14:55:34.563Z,6.50
2023-03-19T14:58:02.132Z,5.47
2023-03-19T15:00:29.335Z,5.22
2023-03-19T15:02:56.704Z,5.77
2023-03-19T15:05:26.054Z,6.32
2023-03-19T15:07:57.351Z,6.68
2023-03-19T15:10:27.116Z,5.75
2023-03-19T15:13:03.796Z,6.78
2023-03-19T15:15:44.476Z,6.83
2023-03-19T15:18:12.499Z,5.30
2023-03-19T15:20:43.411Z,8.50
2023-03-19T15:23:26.346Z,9.50
2023-03-19T15:25:58.140Z,8.93
2023-03-19T15:28:26.164Z,8.53
2023-03-19T15:31:05.959Z,8.43
2023-03-19T15:33:44.103Z,10.05
2023-03-19T15:36:16.439Z,10.23
2023-03-19T15:38:46.641Z,9.10
2023-03-19T15:41:14.044Z,7.07
2023-03-19T15:43:41.852Z,7.35
2023-03-19T15:46:12.009Z,7.40
2023-03-19T15:48:42.373Z,6.30
2023-03-19T15:51:10.558Z,7.00
2023-03-19T15:53:38.802Z,6.97
2023-03-19T15:56:08.020Z,7.22
2023-03-19T15:58:38.682Z,7.55
2023-03-19T16:01:07.096Z,7.90
2023-03-19T16:03:37.898Z,8.27
2023-03-19T16:06:06.674Z,8.77
2023-03-19T16:08:34.772Z,9.68
2023-03-19T16:11:26.409Z,8.57
2023-03-19T16:13:57.087Z,10.00
2023-03-19T16:16:25.343Z,9.55
2023-03-19T16:18:53.522Z,9.10
2023-03-19T16:21:22.093Z,10.10
2023-03-19T16:23:54.854Z,9.57
2023-03-19T16:26:24.476Z,9.63
2023-03-19T16:29:05.975Z,9.63
2023-03-19T16:31:41.438Z,9.73
2023-03-19T16:34:17.002Z,12.88
2023-03-19T16:36:46.361Z,11.63
2023-03-19T16:39:22.609Z,10.38
2023-03-19T16:42:13.670Z,9.80
2023-03-19T16:44:41.783Z,9.87
2023-03-19T16:47:10.171Z,9.88
2023-03-19T16:49:37.463Z,10.27
2023-03-19T16:52:05.284Z,10.23
2023-03-19T16:54:32.575Z,10.10
2023-03-19T16:57:01.003Z,9.90
2023-03-19T16:59:29.256Z,9.73
2023-03-19T17:01:57.264Z,10.63
2023-03-19T17:04:24.470Z,11.63
2023-03-19T17:06:51.735Z,11.82
2023-03-19T17:09:19.011Z,13.80
2023-03-19T17:11:47.949Z,15.38
2023-03-19T17:14:20.052Z,15.68
2023-03-19T17:16:50.835Z,17.63
2023-03-19T17:19:19.557Z,17.88
2023-03-19T17:21:47.317Z,18.53
2023-03-19T17:24:20.737Z,17.92
2023-03-19T17:26:48.453Z,16.83
2023-03-19T17:29:19.448Z,16.98
2023-03-19T17:31:47.096Z,16.80
2023-03-19T17:34:16.806Z,14.97
2023-03-19T17:36:44.783Z,12.52
2023-03-19T17:39:11.891Z,13.05
2023-03-19T17:41:39.316Z,15.60
2023-03-19T17:44:06.932Z,15.20
2023-03-19T17:46:37.641Z,14.97
2023-03-19T17:49:05.394Z,15.38
2023-03-19T17:51:32.677Z,17.23
2023-03-19T17:54:00.741Z,13.35
2023-03-19T17:56:28.096Z,14.23
2023-03-19T17:58:55.544Z,15.60
2023-03-19T18:01:25.200Z,15.00
2023-03-19T18:03:55.621Z,14.18
2023-03-19T18:06:24.079Z,14.27
2023-03-19T18:08:52.647Z,14.43
2023-03-19T18:11:19.899Z,14.57
2023-03-19T18:13:47.246Z,15.60
2023-03-19T18:16:18.996Z,16.00
2023-03-19T18:18:47.047Z,16.30
2023-03-19T18:21:15.910Z,17.98
2023-03-19T18:23:43.357Z,20.53
2023-03-19T18:26:12.017Z,24.00
2023-03-19T18:28:39.839Z,23.83
2023-03-19T18:31:11.861Z,23.45
2023-03-19T18:33:39.582Z,28.75
2023-03-19T18:36:07.358Z,30.83
2023-03-19T18:38:36.039Z,33.92
2023-03-19T18:41:03.663Z,34.08
2023-03-19T18:43:31.008Z,32.00
2023-03-19T18:45:58.610Z,33.42
2023-03-19T18:48:27.853Z,32.30
2023-03-19T18:50:55.872Z,30.10
2023-03-19T18:53:23.490Z,29.13
2023-03-19T18:55:52.637Z,26.45
2023-03-19T18:58:21.501Z,24.75
2023-03-19T19:00:49.129Z,22.87
2023-03-19T19:03:17.370Z,22.08
2023-03-19T19:05:44.816Z,21.70
2023-03-19T19:08:14.294Z,21.15
2023-03-19T19:10:42.314Z,21.70
2023-03-19T19:13:14.553Z,22.37
2023-03-19T19:15:43.533Z,24.25
2023-03-19T19:18:14.660Z,27.52
2023-03-19T19:20:42.136Z,28.55
2023-03-19T19:23:09.936Z,30.83
2023-03-19T19:25:38.727Z,30.83
2023-03-19T19:28:08.691Z,31.00
2023-03-19T19:30:37.989Z,31.92
2023-03-19T19:33:06.467Z,31.75
2023-03-19T19:35:33.845Z,33.03
2023-03-19T19:38:01.210Z,29.57
2023-03-19T19:40:31.004Z,28.85
2023-03-19T19:42:58.304Z,28.42
2023-03-19T19:45:28.156Z,26.35
2023-03-19T19:47:56.896Z,26.63
2023-03-19T19:50:25.546Z,27.60
2023-03-19T19:52:52.937Z,27.70
2023-03-19T19:55:20.562Z,26.98
2023-03-19T19:57:48.456Z,26.52
2023-03-19T20:00:17.100Z,25.20
2023-03-19T20:02:44.356Z,19.00
2023-03-19T20:05:17.742Z,17.55
2023-03-19T20:07:45.628Z,17.08
2023-03-19T20:10:14.360Z,16.45
2023-03-19T20:12:44.682Z,16.85
2023-03-19T20:15:16.692Z,17.40
2023-03-19T20:17:46.954Z,16.65
2023-03-19T20:20:19.596Z,17.98
2023-03-19T20:22:47.678Z,18.27
2023-03-19T20:25:15.155Z,18.83
2023-03-19T20:27:42.774Z,19.67
2023-03-19T20:30:17.575Z,19.27
2023-03-19T20:32:45.647Z,20.55
2023-03-19T20:35:16.145Z,22.95
2023-03-19T20:37:53.583Z,24.77
2023-03-19T20:40:21.388Z,20.23
2023-03-19T20:42:50.055Z,19.13
2023-03-19T20:45:19.976Z,14.40
2023-03-19T20:47:48.546Z,14.00
2023-03-19T20:50:22.905Z,15.27
2023-03-19T20:52:51.059Z,15.57
2023-03-19T20:55:20.996Z,17.65
2023-03-19T20:57:49.342Z,15.07
2023-03-19T21:00:21.715Z,13.60
2023-03-19T21:02:49.471Z,14.82
2023-03-19T21:05:17.399Z,14.23
2023-03-19T21:07:45.720Z,14.93
2023-03-19T21:10:20.457Z,15.05
2023-03-19T21:12:51.933Z,15.88
2023-03-19T21:15:18.993Z,16.15
2023-03-19T21:17:46.906Z,16.50
2023-03-19T21:20:18.267Z,18.35
2023-03-19T21:22:46.901Z,17.95
2023-03-19T21:25:17.016Z,19.17
2023-03-19T21:27:46.021Z,19.88
2023-03-19T21:30:16.668Z,19.07
2023-03-19T21:32:44.246Z,23.90
2023-03-19T21:35:18.448Z,28.02
2023-03-19T21:37:46.644Z,24.88
2023-03-19T21:40:14.984Z,21.50
2023-03-19T21:42:42.361Z,20.40
2023-03-19T21:45:14.604Z,18.88
2023-03-19T21:47:43.175Z,18.85
2023-03-19T21:50:14.314Z,19.05
2023-03-19T21:52:56.556Z,17.50
2023-03-19T21:55:25.649Z,17.80
2023-03-19T21:57:56.543Z,18.55
2023-03-19T22:00:23.758Z,17.08
2023-03-19T22:02:52.154Z,15.45
2023-03-19T22:05:21.885Z,15.73
2023-03-19T22:07:49.292Z,14.67
2023-03-19T22:10:16.620Z,12.10
2023-03-19T22:12:44.339Z,12.40
2023-03-19T22:15:17.795Z,12.25
2023-03-19T22:17:44.912Z,12.75
2023-03-19T22:20:15.123Z,12.90
2023-03-19T22:22:46.277Z,11.90
2023-03-19T22:25:13.611Z,10.32
2023-03-19T22:27:41.919Z,9.10
2023-03-19T22:30:14.511Z,10.30
2023-03-19T22:32:41.466Z,11.57
2023-03-19T22:35:14.930Z,13.50
2023-03-19T22:37:43.674Z,11.13
2023-03-19T22:40:16.467Z,13.65
2023-03-19T22:42:46.570Z,13.05
2023-03-19T22:45:19.097Z,14.10
2023-03-19T22:47:46.459Z,13.20
2023-03-19T22:50:18.310Z,12.48
2023-03-19T22:52:49.896Z,11.68
2023-03-19T22:55:17.185Z,12.13
2023-03-19T22:57:45.618Z,11.17
2023-03-19T23:00:20.501Z,11.57
2023-03-19T23:02:49.127Z,11.32
2023-03-19T23:05:32.185Z,11.00
2023-03-19T23:08:01.250Z,11.85
2023-03-19T23:10:29.462Z,10.97
2023-03-19T23:12:59.869Z,12.00
2023-03-19T23:15:27.722Z,11.70
2023-03-19T23:17:56.644Z,11.80
2023-03-19T23:20:24.531Z,11.88
2023-03-19T23:22:53.893Z,13.03
2023-03-19T23:25:24.080Z,12.30
2023-03-19T23:27:51.201Z,11.25
2023-03-19T23:30:25.036Z,11.77
2023-03-19T23:32:52.636Z,11.27
2023-03-19T23:35:21.366Z,10.87
2023-03-19T23:37:48.641Z,11.30
2023-03-19T23:40:17.315Z,8.35
2023-03-19T23:42:46.858Z,7.90
2023-03-19T23:45:21.578Z,7.75
2023-03-19T23:47:48.685Z,7.43
2023-03-19T23:50:19.114Z,7.38
2023-03-19T23:52:46.877Z,6.90
2023-03-19T23:55:13.837Z,6.05
2023-03-19T23:57:40.832Z,5.75
